sensor_id;sensor_type;location;lat;lon;timestamp;pressure;altitude;pressure_sealevel;temperature;humidity
84947;BME280;75241;51.692;5.196;2024-02-04T00:00:28;102468.13;;;9.69;89.83
84947;BME280;75241;51.692;5.196;2024-02-04T00:02:54;102461.16;;;9.68;89.71
84947;BME280;75241;51.692;5.196;2024-02-04T00:05:19;102465.59;;;9.66;89.94
84947;BME280;75241;51.692;5.196;2024-02-04T00:07:45;102468.16;;;9.68;90.01
84947;BME280;75241;51.692;5.196;2024-02-04T00:10:11;102465.53;;;9.68;90.00
84947;BME280;75241;51.692;5.196;2024-02-04T00:12:37;102467.31;;;9.67;90.04
84947;BME280;75241;51.692;5.196;2024-02-04T00:15:03;102469.91;;;9.69;89.97
84947;BME280;75241;51.692;5.196;2024-02-04T00:17:31;102475.13;;;9.69;89.96
84947;BME280;75241;51.692;5.196;2024-02-04T00:19:59;102476.91;;;9.67;89.79
84947;BME280;75241;51.692;5.196;2024-02-04T00:22:25;102477.75;;;9.69;89.89
84947;BME280;75241;51.692;5.196;2024-02-04T00:24:50;102482.09;;;9.70;89.83
84947;BME280;75241;51.692;5.196;2024-02-04T00:27:16;102483.00;;;9.69;89.74
84947;BME280;75241;51.692;5.196;2024-02-04T00:29:41;102478.59;;;9.71;89.77
84947;BME280;75241;51.692;5.196;2024-02-04T00:32:06;102482.13;;;9.68;89.75
84947;BME280;75241;51.692;5.196;2024-02-04T00:34:32;102469.00;;;9.68;89.66
84947;BME280;75241;51.692;5.196;2024-02-04T00:36:58;102487.34;;;9.70;89.67
84947;BME280;75241;51.692;5.196;2024-02-04T00:39:25;102482.16;;;9.67;89.57
84947;BME280;75241;51.692;5.196;2024-02-04T00:41:51;102472.56;;;9.66;89.63
84947;BME280;75241;51.692;5.196;2024-02-04T00:44:16;102484.78;;;9.67;89.40
84947;BME280;75241;51.692;5.196;2024-02-04T00:46:41;102485.72;;;9.64;89.41
84947;BME280;75241;51.692;5.196;2024-02-04T00:49:07;102481.31;;;9.66;89.21
84947;BME280;75241;51.692;5.196;2024-02-04T00:51:32;102488.28;;;9.66;89.48
84947;BME280;75241;51.692;5.196;2024-02-04T00:53:58;102486.56;;;9.64;89.23
84947;BME280;75241;51.692;5.196;2024-02-04T00:56:23;102492.69;;;9.65;89.33
84947;BME280;75241;51.692;5.196;2024-02-04T00:58:49;102483.94;;;9.64;89.31
84947;BME280;75241;51.692;5.196;2024-02-04T01:01:14;102478.75;;;9.63;89.20
84947;BME280;75241;51.692;5.196;2024-02-04T01:03:39;102467.41;;;9.62;89.19
84947;BME280;75241;51.692;5.196;2024-02-04T01:06:05;102472.63;;;9.62;89.42
84947;BME280;75241;51.692;5.196;2024-02-04T01:08:30;102456.91;;;9.62;89.28
84947;BME280;75241;51.692;5.196;2024-02-04T01:10:56;102455.19;;;9.63;89.27
84947;BME280;75241;51.692;5.196;2024-02-04T01:13:21;102453.50;;;9.60;89.20
84947;BME280;75241;51.692;5.196;2024-02-04T01:15:46;102459.59;;;9.61;89.07
84947;BME280;75241;51.692;5.196;2024-02-04T01:18:12;102452.56;;;9.61;89.15
84947;BME280;75241;51.692;5.196;2024-02-04T01:20:37;102454.34;;;9.61;89.11
84947;BME280;75241;51.692;5.196;2024-02-04T01:23:03;102466.59;;;9.60;89.18
84947;BME280;75241;51.692;5.196;2024-02-04T01:25:29;102453.50;;;9.59;88.97
84947;BME280;75241;51.692;5.196;2024-02-04T01:27:54;102451.78;;;9.59;88.81
84947;BME280;75241;51.692;5.196;2024-02-04T01:30:19;102447.38;;;9.60;89.04
84947;BME280;75241;51.692;5.196;2024-02-04T01:32:45;102457.84;;;9.60;89.07
84947;BME280;75241;51.692;5.196;2024-02-04T01:35:11;102454.38;;;9.59;88.98
84947;BME280;75241;51.692;5.196;2024-02-04T01:37:36;102459.63;;;9.58;89.01
84947;BME280;75241;51.692;5.196;2024-02-04T01:40:02;102461.38;;;9.59;89.07
84947;BME280;75241;51.692;5.196;2024-02-04T01:42:27;102454.41;;;9.58;88.99
84947;BME280;75241;51.692;5.196;2024-02-04T01:44:52;102461.44;;;9.56;88.93
84947;BME280;75241;51.692;5.196;2024-02-04T01:47:18;102457.97;;;9.55;89.09
84947;BME280;75241;51.692;5.196;2024-02-04T01:49:45;102453.59;;;9.54;89.16
84947;BME280;75241;51.692;5.196;2024-02-04T01:52:11;102458.84;;;9.54;88.94
84947;BME280;75241;51.692;5.196;2024-02-04T01:54:37;102460.63;;;9.54;88.83
84947;BME280;75241;51.692;5.196;2024-02-04T01:57:06;102459.78;;;9.52;89.03
84947;BME280;75241;51.692;5.196;2024-02-04T01:59:31;102461.50;;;9.53;89.05
84947;BME280;75241;51.692;5.196;2024-02-04T02:01:59;102479.84;;;9.51;88.98
84947;BME280;75241;51.692;5.196;2024-02-04T02:04:25;102474.66;;;9.49;89.10
84947;BME280;75241;51.692;5.196;2024-02-04T02:06:53;102464.25;;;9.46;88.91
84947;BME280;75241;51.692;5.196;2024-02-04T02:09:18;102466.88;;;9.46;88.68
84947;BME280;75241;51.692;5.196;2024-02-04T02:11:46;102458.22;;;9.43;88.90
84947;BME280;75241;51.692;5.196;2024-02-04T02:14:14;102459.97;;;9.42;88.53
84947;BME280;75241;51.692;5.196;2024-02-04T02:16:44;102460.84;;;9.43;88.80
84947;BME280;75241;51.692;5.196;2024-02-04T02:19:36;102466.13;;;9.40;88.68
84947;BME280;75241;51.692;5.196;2024-02-04T02:24:55;102459.13;;;9.40;88.71
84947;BME280;75241;51.692;5.196;2024-02-04T02:27:21;102455.66;;;9.40;88.60
84947;BME280;75241;51.692;5.196;2024-02-04T02:29:46;102449.59;;;9.38;88.67
84947;BME280;75241;51.692;5.196;2024-02-04T02:32:12;102458.34;;;9.37;88.64
84947;BME280;75241;51.692;5.196;2024-02-04T02:34:37;102452.19;;;9.38;88.54
84947;BME280;75241;51.692;5.196;2024-02-04T02:37:29;102457.44;;;9.38;88.73
84947;BME280;75241;51.692;5.196;2024-02-04T02:40:19;102455.72;;;9.37;88.51
84947;BME280;75241;51.692;5.196;2024-02-04T02:42:47;102444.41;;;9.34;88.39
84947;BME280;75241;51.692;5.196;2024-02-04T02:45:13;102439.16;;;9.34;88.50
84947;BME280;75241;51.692;5.196;2024-02-04T02:47:41;102448.00;;;9.30;88.24
84947;BME280;75241;51.692;5.196;2024-02-04T02:50:07;102438.44;;;9.28;88.33
84947;BME280;75241;51.692;5.196;2024-02-04T02:52:33;102440.25;;;9.26;88.25
84947;BME280;75241;51.692;5.196;2024-02-04T02:54:59;102442.88;;;9.26;87.99
84947;BME280;75241;51.692;5.196;2024-02-04T02:57:24;102436.78;;;9.24;88.17
84947;BME280;75241;51.692;5.196;2024-02-04T02:59:49;102441.19;;;9.22;88.33
84947;BME280;75241;51.692;5.196;2024-02-04T03:02:15;102430.72;;;9.22;88.42
84947;BME280;75241;51.692;5.196;2024-02-04T03:04:41;102440.31;;;9.21;88.10
84947;BME280;75241;51.692;5.196;2024-02-04T03:07:06;102442.91;;;9.23;88.14
84947;BME280;75241;51.692;5.196;2024-02-04T03:09:33;102435.97;;;9.20;88.19
84947;BME280;75241;51.692;5.196;2024-02-04T03:11:58;102445.53;;;9.21;88.09
84947;BME280;75241;51.692;5.196;2024-02-04T03:14:24;102449.94;;;9.21;88.21
84947;BME280;75241;51.692;5.196;2024-02-04T03:16:49;102454.28;;;9.22;88.22
84947;BME280;75241;51.692;5.196;2024-02-04T03:19:14;102446.44;;;9.22;88.30
84947;BME280;75241;51.692;5.196;2024-02-04T03:21:40;102442.91;;;9.23;88.07
84947;BME280;75241;51.692;5.196;2024-02-04T03:24:05;102433.34;;;9.22;88.13
84947;BME280;75241;51.692;5.196;2024-02-04T03:26:31;102440.31;;;9.23;88.17
84947;BME280;75241;51.692;5.196;2024-02-04T03:28:56;102442.03;;;9.22;87.80
84947;BME280;75241;51.692;5.196;2024-02-04T03:31:24;102444.66;;;9.24;88.13
84947;BME280;75241;51.692;5.196;2024-02-04T03:33:50;102442.03;;;9.22;88.00
84947;BME280;75241;51.692;5.196;2024-02-04T03:36:21;102452.50;;;9.22;87.92
84947;BME280;75241;51.692;5.196;2024-02-04T03:38:48;102444.66;;;9.22;88.14
84947;BME280;75241;51.692;5.196;2024-02-04T03:41:14;102449.88;;;9.24;88.13
84947;BME280;75241;51.692;5.196;2024-02-04T03:43:39;102438.53;;;9.25;88.02
84947;BME280;75241;51.692;5.196;2024-02-04T03:46:04;102433.28;;;9.25;88.08
84947;BME280;75241;51.692;5.196;2024-02-04T03:48:30;102428.00;;;9.26;87.91
84947;BME280;75241;51.692;5.196;2024-02-04T03:50:55;102423.63;;;9.27;88.08
84947;BME280;75241;51.692;5.196;2024-02-04T03:53:21;102423.66;;;9.25;88.23
84947;BME280;75241;51.692;5.196;2024-02-04T03:55:48;102427.13;;;9.27;87.98
84947;BME280;75241;51.692;5.196;2024-02-04T03:58:14;102450.69;;;9.27;88.26
84947;BME280;75241;51.692;5.196;2024-02-04T04:00:39;102434.97;;;9.27;88.16
84947;BME280;75241;51.692;5.196;2024-02-04T04:03:05;102429.72;;;9.27;88.22
84947;BME280;75241;51.692;5.196;2024-02-04T04:05:30;102425.34;;;9.29;87.96
84947;BME280;75241;51.692;5.196;2024-02-04T04:07:56;102430.56;;;9.28;88.06
84947;BME280;75241;51.692;5.196;2024-02-04T04:10:21;102441.00;;;9.31;87.93
84947;BME280;75241;51.692;5.196;2024-02-04T04:12:46;102444.50;;;9.31;88.14
84947;BME280;75241;51.692;5.196;2024-02-04T04:15:12;102454.97;;;9.31;88.22
84947;BME280;75241;51.692;5.196;2024-02-04T04:17:37;102437.47;;;9.32;88.11
84947;BME280;75241;51.692;5.196;2024-02-04T04:20:05;102427.84;;;9.34;88.05
84947;BME280;75241;51.692;5.196;2024-02-04T04:22:31;102434.88;;;9.32;87.96
84947;BME280;75241;51.692;5.196;2024-02-04T04:24:56;102426.97;;;9.33;88.11
84947;BME280;75241;51.692;5.196;2024-02-04T04:27:22;102412.97;;;9.34;87.86
84947;BME280;75241;51.692;5.196;2024-02-04T04:29:47;102399.00;;;9.37;88.00
84947;BME280;75241;51.692;5.196;2024-02-04T04:32:12;102383.28;;;9.37;88.07
84947;BME280;75241;51.692;5.196;2024-02-04T04:34:38;102383.28;;;9.37;88.04
84947;BME280;75241;51.692;5.196;2024-02-04T04:37:03;102380.66;;;9.37;87.96
84947;BME280;75241;51.692;5.196;2024-02-04T04:39:29;102383.22;;;9.39;88.04
84947;BME280;75241;51.692;5.196;2024-02-04T04:41:54;102381.50;;;9.39;88.03
84947;BME280;75241;51.692;5.196;2024-02-04T04:44:19;102396.28;;;9.40;88.16
84947;BME280;75241;51.692;5.196;2024-02-04T04:46:45;102398.00;;;9.41;88.02
84947;BME280;75241;51.692;5.196;2024-02-04T04:49:10;102394.47;;;9.44;88.06
84947;BME280;75241;51.692;5.196;2024-02-04T04:51:35;102394.44;;;9.45;87.96
84947;BME280;75241;51.692;5.196;2024-02-04T04:54:01;102386.56;;;9.45;88.00
84947;BME280;75241;51.692;5.196;2024-02-04T04:56:26;102396.19;;;9.45;87.98
84947;BME280;75241;51.692;5.196;2024-02-04T04:58:52;102394.41;;;9.47;88.00
84947;BME280;75241;51.692;5.196;2024-02-04T05:01:17;102397.06;;;9.45;88.20
84947;BME280;75241;51.692;5.196;2024-02-04T05:03:43;102394.41;;;9.47;88.04
84947;BME280;75241;51.692;5.196;2024-02-04T05:06:09;102390.06;;;9.46;87.83
84947;BME280;75241;51.692;5.196;2024-02-04T05:08:34;102385.69;;;9.46;87.88
84947;BME280;75241;51.692;5.196;2024-02-04T05:10:59;102384.78;;;9.47;87.71
84947;BME280;75241;51.692;5.196;2024-02-04T05:13:25;102383.91;;;9.48;87.83
84947;BME280;75241;51.692;5.196;2024-02-04T05:15:50;102382.13;;;9.49;87.69
84947;BME280;75241;51.692;5.196;2024-02-04T05:18:16;102382.16;;;9.47;87.50
84947;BME280;75241;51.692;5.196;2024-02-04T05:20:41;102380.41;;;9.48;87.74
84947;BME280;75241;51.692;5.196;2024-02-04T05:23:08;102389.97;;;9.49;87.31
84947;BME280;75241;51.692;5.196;2024-02-04T05:25:34;102384.72;;;9.51;87.47
84947;BME280;75241;51.692;5.196;2024-02-04T05:27:59;102391.75;;;9.48;87.71
84947;BME280;75241;51.692;5.196;2024-02-04T05:30:24;102389.09;;;9.50;87.38
84947;BME280;75241;51.692;5.196;2024-02-04T05:32:50;102389.06;;;9.52;87.24
84947;BME280;75241;51.692;5.196;2024-02-04T05:35:15;102390.81;;;9.51;87.36
84947;BME280;75241;51.692;5.196;2024-02-04T05:37:41;102396.03;;;9.53;87.34
84947;BME280;75241;51.692;5.196;2024-02-04T05:40:06;102393.38;;;9.54;87.20
84947;BME280;75241;51.692;5.196;2024-02-04T05:42:32;102393.31;;;9.56;87.24
84947;BME280;75241;51.692;5.196;2024-02-04T05:44:58;102394.19;;;9.56;87.18
84947;BME280;75241;51.692;5.196;2024-02-04T05:47:23;102394.22;;;9.55;87.41
84947;BME280;75241;51.692;5.196;2024-02-04T05:49:49;102396.88;;;9.53;87.53
84947;BME280;75241;51.692;5.196;2024-02-04T05:52:15;102383.78;;;9.53;87.61
84947;BME280;75241;51.692;5.196;2024-02-04T05:54:40;102364.59;;;9.53;87.67
84947;BME280;75241;51.692;5.196;2024-02-04T05:57:06;102378.59;;;9.52;87.82
84947;BME280;75241;51.692;5.196;2024-02-04T05:59:32;102373.38;;;9.50;87.75
84947;BME280;75241;51.692;5.196;2024-02-04T06:01:58;102370.75;;;9.50;87.88
84947;BME280;75241;51.692;5.196;2024-02-04T06:04:23;102382.13;;;9.49;87.88
84947;BME280;75241;51.692;5.196;2024-02-04T06:06:49;102356.88;;;9.46;87.90
84947;BME280;75241;51.692;5.196;2024-02-04T06:09:14;102364.72;;;9.46;87.88
84947;BME280;75241;51.692;5.196;2024-02-04T06:11:40;102362.16;;;9.45;87.99
84947;BME280;75241;51.692;5.196;2024-02-04T06:14:05;102352.56;;;9.44;88.08
84947;BME280;75241;51.692;5.196;2024-02-04T06:16:31;102352.59;;;9.42;88.34
84947;BME280;75241;51.692;5.196;2024-02-04T06:18:59;102349.16;;;9.40;88.33
84947;BME280;75241;51.692;5.196;2024-02-04T06:21:25;102344.84;;;9.38;88.27
84947;BME280;75241;51.692;5.196;2024-02-04T06:23:50;102349.22;;;9.37;88.39
84947;BME280;75241;51.692;5.196;2024-02-04T06:26:15;102351.88;;;9.36;88.40
84947;BME280;75241;51.692;5.196;2024-02-04T06:28:41;102358.00;;;9.34;88.43
84947;BME280;75241;51.692;5.196;2024-02-04T06:31:10;102357.19;;;9.32;88.51
84947;BME280;75241;51.692;5.196;2024-02-04T06:33:36;102352.88;;;9.30;88.64
84947;BME280;75241;51.692;5.196;2024-02-04T06:36:01;102350.31;;;9.27;88.56
84947;BME280;75241;51.692;5.196;2024-02-04T06:38:27;102359.03;;;9.27;88.66
84947;BME280;75241;51.692;5.196;2024-02-04T06:40:52;102357.28;;;9.28;88.81
84947;BME280;75241;51.692;5.196;2024-02-04T06:43:17;102362.56;;;9.26;88.87
84947;BME280;75241;51.692;5.196;2024-02-04T06:45:43;102351.19;;;9.27;88.76
84947;BME280;75241;51.692;5.196;2024-02-04T06:48:08;102340.72;;;9.27;88.67
84947;BME280;75241;51.692;5.196;2024-02-04T06:50:35;102351.19;;;9.27;88.61
84947;BME280;75241;51.692;5.196;2024-02-04T06:53:00;102366.84;;;9.29;88.55
84947;BME280;75241;51.692;5.196;2024-02-04T06:55:26;102357.25;;;9.29;88.52
84947;BME280;75241;51.692;5.196;2024-02-04T06:57:51;102345.06;;;9.28;88.53
84947;BME280;75241;51.692;5.196;2024-02-04T07:00:16;102343.28;;;9.29;88.56
84947;BME280;75241;51.692;5.196;2024-02-04T07:02:42;102332.81;;;9.30;88.51
84947;BME280;75241;51.692;5.196;2024-02-04T07:05:08;102334.53;;;9.31;88.60
84947;BME280;75241;51.692;5.196;2024-02-04T07:07:33;102339.75;;;9.31;88.63
84947;BME280;75241;51.692;5.196;2024-02-04T07:09:59;102354.59;;;9.31;88.73
84947;BME280;75241;51.692;5.196;2024-02-04T07:12:24;102370.25;;;9.34;88.50
84947;BME280;75241;51.692;5.196;2024-02-04T07:14:50;102347.50;;;9.36;88.61
84947;BME280;75241;51.692;5.196;2024-02-04T07:17:15;102332.69;;;9.35;88.34
84947;BME280;75241;51.692;5.196;2024-02-04T07:19:40;102340.50;;;9.38;88.42
84947;BME280;75241;51.692;5.196;2024-02-04T07:22:06;102344.81;;;9.39;88.24
84947;BME280;75241;51.692;5.196;2024-02-04T07:24:32;102338.66;;;9.40;88.37
84947;BME280;75241;51.692;5.196;2024-02-04T07:26:58;102334.31;;;9.41;88.38
84947;BME280;75241;51.692;5.196;2024-02-04T07:29:23;102324.69;;;9.41;88.40
84947;BME280;75241;51.692;5.196;2024-02-04T07:31:48;102334.31;;;9.41;88.09
84947;BME280;75241;51.692;5.196;2024-02-04T07:34:14;102333.41;;;9.42;88.29
84947;BME280;75241;51.692;5.196;2024-02-04T07:36:39;102321.16;;;9.42;88.29
84947;BME280;75241;51.692;5.196;2024-02-04T07:39:05;102329.00;;;9.44;88.21
84947;BME280;75241;51.692;5.196;2024-02-04T07:41:31;102329.84;;;9.44;88.25
84947;BME280;75241;51.692;5.196;2024-02-04T07:43:57;102324.66;;;9.43;88.29
84947;BME280;75241;51.692;5.196;2024-02-04T07:46:22;102345.50;;;9.47;88.17
84947;BME280;75241;51.692;5.196;2024-02-04T07:48:47;102342.88;;;9.47;88.18
84947;BME280;75241;51.692;5.196;2024-02-04T07:51:13;102338.53;;;9.46;88.26
84947;BME280;75241;51.692;5.196;2024-02-04T07:53:38;102341.22;;;9.45;88.29
84947;BME280;75241;51.692;5.196;2024-02-04T07:56:04;102343.78;;;9.46;88.34
84947;BME280;75241;51.692;5.196;2024-02-04T07:58:32;102328.97;;;9.45;88.29
84947;BME280;75241;51.692;5.196;2024-02-04T08:00:57;102333.31;;;9.46;88.23
84947;BME280;75241;51.692;5.196;2024-02-04T08:03:23;102321.09;;;9.47;88.36
84947;BME280;75241;51.692;5.196;2024-02-04T08:05:48;102334.19;;;9.47;88.56
84947;BME280;75241;51.692;5.196;2024-02-04T08:08:13;102321.03;;;9.48;88.62
84947;BME280;75241;51.692;5.196;2024-02-04T08:10:39;102322.78;;;9.48;88.25
84947;BME280;75241;51.692;5.196;2024-02-04T08:13:04;102324.50;;;9.49;88.50
84947;BME280;75241;51.692;5.196;2024-02-04T08:15:30;102320.16;;;9.48;88.27
84947;BME280;75241;51.692;5.196;2024-02-04T08:17:55;102310.53;;;9.50;88.40
84947;BME280;75241;51.692;5.196;2024-02-04T08:20:21;102316.63;;;9.51;88.09
84947;BME280;75241;51.692;5.196;2024-02-04T08:22:47;102309.59;;;9.53;88.35
84947;BME280;75241;51.692;5.196;2024-02-04T08:25:12;102322.69;;;9.53;88.31
84947;BME280;75241;51.692;5.196;2024-02-04T08:27:37;102325.22;;;9.56;88.16
84947;BME280;75241;51.692;5.196;2024-02-04T08:30:04;102323.44;;;9.58;87.84
84947;BME280;75241;51.692;5.196;2024-02-04T08:32:30;102348.72;;;9.59;87.81
84947;BME280;75241;51.692;5.196;2024-02-04T08:34:55;102342.59;;;9.60;87.51
84947;BME280;75241;51.692;5.196;2024-02-04T08:37:21;102324.19;;;9.63;87.52
84947;BME280;75241;51.692;5.196;2024-02-04T08:39:46;102346.88;;;9.64;87.41
84947;BME280;75241;51.692;5.196;2024-02-04T08:42:12;102338.06;;;9.67;87.23
84947;BME280;75241;51.692;5.196;2024-02-04T08:44:37;102338.91;;;9.69;87.45
84947;BME280;75241;51.692;5.196;2024-02-04T08:47:03;102330.09;;;9.73;87.36
84947;BME280;75241;51.692;5.196;2024-02-04T08:49:29;102336.16;;;9.73;86.93
84947;BME280;75241;51.692;5.196;2024-02-04T08:51:55;102336.09;;;9.76;86.83
84947;BME280;75241;51.692;5.196;2024-02-04T08:54:20;102345.69;;;9.77;86.79
84947;BME280;75241;51.692;5.196;2024-02-04T08:56:45;102349.97;;;9.80;86.64
84947;BME280;75241;51.692;5.196;2024-02-04T08:59:11;102335.94;;;9.83;86.55
84947;BME280;75241;51.692;5.196;2024-02-04T09:01:36;102342.91;;;9.84;86.57
84947;BME280;75241;51.692;5.196;2024-02-04T09:04:02;102335.91;;;9.84;86.55
84947;BME280;75241;51.692;5.196;2024-02-04T09:06:27;102345.44;;;9.87;86.20
84947;BME280;75241;51.692;5.196;2024-02-04T09:08:53;102340.19;;;9.88;86.03
84947;BME280;75241;51.692;5.196;2024-02-04T09:11:18;102338.38;;;9.90;85.97
84947;BME280;75241;51.692;5.196;2024-02-04T09:13:46;102342.72;;;9.91;85.88
84947;BME280;75241;51.692;5.196;2024-02-04T09:16:11;102340.06;;;9.93;85.73
84947;BME280;75241;51.692;5.196;2024-02-04T09:18:36;102339.06;;;9.97;85.78
84947;BME280;75241;51.692;5.196;2024-02-04T09:21:02;102337.34;;;9.98;85.72
84947;BME280;75241;51.692;5.196;2024-02-04T09:23:27;102337.28;;;9.99;85.62
84947;BME280;75241;51.692;5.196;2024-02-04T09:25:53;102327.63;;;10.01;85.61
84947;BME280;75241;51.692;5.196;2024-02-04T09:28:18;102333.69;;;10.03;85.11
84947;BME280;75241;51.692;5.196;2024-02-04T09:30:44;102324.88;;;10.06;85.34
84947;BME280;75241;51.692;5.196;2024-02-04T09:33:09;102340.59;;;10.07;84.94
84947;BME280;75241;51.692;5.196;2024-02-04T09:35:35;102330.94;;;10.08;84.81
84947;BME280;75241;51.692;5.196;2024-02-04T09:38:00;102332.69;;;10.09;84.83
84947;BME280;75241;51.692;5.196;2024-02-04T09:40:25;102335.19;;;10.14;84.74
84947;BME280;75241;51.692;5.196;2024-02-04T09:42:51;102322.94;;;10.14;85.14
84947;BME280;75241;51.692;5.196;2024-02-04T09:45:17;102335.19;;;10.14;85.13
84947;BME280;75241;51.692;5.196;2024-02-04T09:47:44;102337.84;;;10.12;85.52
84947;BME280;75241;51.692;5.196;2024-02-04T09:50:10;102329.31;;;10.04;85.94
84947;BME280;75241;51.692;5.196;2024-02-04T09:52:39;102339.91;;;9.99;85.88
84947;BME280;75241;51.692;5.196;2024-02-04T09:55:06;102342.66;;;9.94;86.55
84947;BME280;75241;51.692;5.196;2024-02-04T09:57:34;102342.81;;;9.88;86.84
84947;BME280;75241;51.692;5.196;2024-02-04T10:00:03;102339.38;;;9.85;87.16
84947;BME280;75241;51.692;5.196;2024-02-04T10:02:32;102348.25;;;9.81;87.54
84947;BME280;75241;51.692;5.196;2024-02-04T10:04:57;102349.13;;;9.79;87.70
84947;BME280;75241;51.692;5.196;2024-02-04T10:07:23;102341.41;;;9.75;88.00
84947;BME280;75241;51.692;5.196;2024-02-04T10:09:49;102339.69;;;9.72;88.42
84947;BME280;75241;51.692;5.196;2024-02-04T10:12:15;102341.47;;;9.72;88.42
84947;BME280;75241;51.692;5.196;2024-02-04T10:14:41;102341.41;;;9.75;88.53
84947;BME280;75241;51.692;5.196;2024-02-04T10:17:07;102344.84;;;9.75;88.20
84947;BME280;75241;51.692;5.196;2024-02-04T10:19:32;102336.94;;;9.77;88.60
84947;BME280;75241;51.692;5.196;2024-02-04T10:22:01;102334.34;;;9.77;88.63
84947;BME280;75241;51.692;5.196;2024-02-04T10:24:27;102335.22;;;9.77;88.58
84947;BME280;75241;51.692;5.196;2024-02-04T10:26:54;102330.88;;;9.76;88.79
84947;BME280;75241;51.692;5.196;2024-02-04T10:29:21;102321.22;;;9.78;88.84
84947;BME280;75241;51.692;5.196;2024-02-04T10:31:46;102324.78;;;9.74;88.58
84947;BME280;75241;51.692;5.196;2024-02-04T10:34:12;102328.31;;;9.73;88.91
84947;BME280;75241;51.692;5.196;2024-02-04T10:36:37;102330.09;;;9.73;88.80
84947;BME280;75241;51.692;5.196;2024-02-04T10:39:04;102335.34;;;9.71;88.90
84947;BME280;75241;51.692;5.196;2024-02-04T10:41:31;102332.66;;;9.74;88.85
84947;BME280;75241;51.692;5.196;2024-02-04T10:43:59;102340.50;;;9.74;88.82
84947;BME280;75241;51.692;5.196;2024-02-04T10:46:30;102344.00;;;9.75;88.66
84947;BME280;75241;51.692;5.196;2024-02-04T10:48:59;102328.31;;;9.73;88.65
84947;BME280;75241;51.692;5.196;2024-02-04T10:51:26;102348.38;;;9.74;88.53
84947;BME280;75241;51.692;5.196;2024-02-04T10:53:54;102333.53;;;9.75;88.76
84947;BME280;75241;51.692;5.196;2024-02-04T10:56:30;102333.47;;;9.76;88.65
84947;BME280;75241;51.692;5.196;2024-02-04T10:58:58;102331.75;;;9.75;88.88
84947;BME280;75241;51.692;5.196;2024-02-04T11:01:26;102334.38;;;9.75;88.75
84947;BME280;75241;51.692;5.196;2024-02-04T11:03:53;102336.16;;;9.75;88.90
84947;BME280;75241;51.692;5.196;2024-02-04T11:06:20;102327.41;;;9.74;88.62
84947;BME280;75241;51.692;5.196;2024-02-04T11:08:46;102325.66;;;9.75;88.80
84947;BME280;75241;51.692;5.196;2024-02-04T11:11:12;102314.38;;;9.73;88.27
84947;BME280;75241;51.692;5.196;2024-02-04T11:13:41;102313.38;;;9.77;88.47
84947;BME280;75241;51.692;5.196;2024-02-04T11:26:53;102317.69;;;9.79;87.99
84947;BME280;75241;51.692;5.196;2024-02-04T11:29:19;102318.53;;;9.80;87.99
84947;BME280;75241;51.692;5.196;2024-02-04T11:31:45;102311.56;;;9.81;87.88
84947;BME280;75241;51.692;5.196;2024-02-04T11:34:10;102316.75;;;9.82;87.60
84947;BME280;75241;51.692;5.196;2024-02-04T11:36:39;102314.06;;;9.84;87.86
84947;BME280;75241;51.692;5.196;2024-02-04T11:39:14;102315.81;;;9.85;87.66
84947;BME280;75241;51.692;5.196;2024-02-04T11:41:49;102297.44;;;9.86;87.57
84947;BME280;75241;51.692;5.196;2024-02-04T11:44:26;102289.53;;;9.88;87.55
84947;BME280;75241;51.692;5.196;2024-02-04T11:46:52;102301.69;;;9.90;87.54
84947;BME280;75241;51.692;5.196;2024-02-04T11:49:18;102297.31;;;9.91;87.38
84947;BME280;75241;51.692;5.196;2024-02-04T11:51:47;102294.66;;;9.92;87.48
84947;BME280;75241;51.692;5.196;2024-02-04T11:54:16;102285.00;;;9.94;87.18
84947;BME280;75241;51.692;5.196;2024-02-04T11:56:45;102282.31;;;9.96;87.08
84947;BME280;75241;51.692;5.196;2024-02-04T11:59:11;102278.78;;;9.99;87.25
84947;BME280;75241;51.692;5.196;2024-02-04T12:01:37;102281.34;;;10.00;86.88
84947;BME280;75241;51.692;5.196;2024-02-04T12:04:12;102272.59;;;10.01;86.50
84947;BME280;75241;51.692;5.196;2024-02-04T12:06:40;102273.34;;;10.05;86.39
84947;BME280;75241;51.692;5.196;2024-02-04T12:09:05;102274.19;;;10.07;86.16
84947;BME280;75241;51.692;5.196;2024-02-04T12:11:33;102284.66;;;10.08;86.23
84947;BME280;75241;51.692;5.196;2024-02-04T12:13:59;102275.84;;;10.11;86.06
84947;BME280;75241;51.692;5.196;2024-02-04T12:16:26;102280.09;;;10.15;85.93
84947;BME280;75241;51.692;5.196;2024-02-04T12:18:52;102281.84;;;10.15;86.04
84947;BME280;75241;51.692;5.196;2024-02-04T12:21:17;102282.66;;;10.17;85.87
84947;BME280;75241;51.692;5.196;2024-02-04T12:23:43;102280.88;;;10.19;85.32
84947;BME280;75241;51.692;5.196;2024-02-04T12:26:08;102277.34;;;10.20;85.56
84947;BME280;75241;51.692;5.196;2024-02-04T12:28:34;102279.97;;;10.20;85.23
84947;BME280;75241;51.692;5.196;2024-02-04T12:30:59;102271.22;;;10.21;85.29
84947;BME280;75241;51.692;5.196;2024-02-04T12:33:25;102279.91;;;10.21;85.37
84947;BME280;75241;51.692;5.196;2024-02-04T12:35:51;102272.94;;;10.22;85.17
84947;BME280;75241;51.692;5.196;2024-02-04T12:38:17;102278.13;;;10.23;85.10
84947;BME280;75241;51.692;5.196;2024-02-04T12:40:45;102273.72;;;10.24;85.17
84947;BME280;75241;51.692;5.196;2024-02-04T12:43:11;102262.34;;;10.25;84.80
84947;BME280;75241;51.692;5.196;2024-02-04T12:45:37;102246.56;;;10.27;85.01
84947;BME280;75241;51.692;5.196;2024-02-04T12:48:03;102273.63;;;10.29;84.89
84947;BME280;75241;51.692;5.196;2024-02-04T12:50:28;102251.69;;;10.31;84.68
84947;BME280;75241;51.692;5.196;2024-02-04T12:53:07;102253.41;;;10.32;84.52
84947;BME280;75241;51.692;5.196;2024-02-04T12:55:35;102259.41;;;10.36;84.35
84947;BME280;75241;51.692;5.196;2024-02-04T12:58:05;102256.78;;;10.37;84.07
84947;BME280;75241;51.692;5.196;2024-02-04T13:00:31;102256.63;;;10.44;84.08
84947;BME280;75241;51.692;5.196;2024-02-04T13:02:57;102250.38;;;10.48;83.89
84947;BME280;75241;51.692;5.196;2024-02-04T13:05:23;102250.31;;;10.51;84.01
84947;BME280;75241;51.692;5.196;2024-02-04T13:07:53;102250.25;;;10.52;83.89